createdAt,value
2018-01-26T00:00:50.864Z,7.77
2018-01-26T00:03:19.216Z,11.33
2018-01-26T00:05:47.515Z,10.40
2018-01-26T00:08:15.835Z,7.47
2018-01-26T00:10:44.142Z,13.03
2018-01-26T00:13:12.831Z,12.17
2018-01-26T00:15:41.259Z,10.70
2018-01-26T00:18:09.575Z,11.37
2018-01-26T00:20:38.689Z,12.60
2018-01-26T00:23:07.015Z,8.87
2018-01-26T00:25:35.344Z,12.27
2018-01-26T00:28:03.665Z,14.00
2018-01-26T00:30:32.285Z,18.93
2018-01-26T00:33:00.600Z,16.53
2018-01-26T00:35:28.924Z,9.97
2018-01-26T00:37:57.237Z,11.20
2018-01-26T00:40:25.554Z,15.67
2018-01-26T00:42:53.874Z,15.83
2018-01-26T00:45:22.172Z,7.10
2018-01-26T00:47:50.503Z,7.30
2018-01-26T00:50:18.817Z,15.33
2018-01-26T00:52:47.183Z,9.70
2018-01-26T00:55:15.498Z,10.60
2018-01-26T00:57:43.829Z,9.47
2018-01-26T01:00:12.129Z,8.20
2018-01-26T01:02:40.449Z,8.17
2018-01-26T01:05:08.776Z,6.83
2018-01-26T01:07:37.071Z,14.20
2018-01-26T01:10:05.411Z,9.77
2018-01-26T01:12:33.713Z,7.00
2018-01-26T01:15:02.032Z,10.90
2018-01-26T01:17:30.343Z,11.03
2018-01-26T01:19:58.658Z,9.03
2018-01-26T01:22:26.977Z,10.67
2018-01-26T01:24:55.291Z,11.40
2018-01-26T01:27:24.145Z,8.13
2018-01-26T01:29:52.448Z,8.70
2018-01-26T01:32:20.760Z,5.50
2018-01-26T01:34:49.075Z,9.20
2018-01-26T01:37:17.400Z,6.57
2018-01-26T01:39:45.724Z,5.17
2018-01-26T01:42:14.037Z,8.23
2018-01-26T01:44:42.350Z,9.50
2018-01-26T01:47:10.638Z,5.20
2018-01-26T01:49:38.959Z,5.93
2018-01-26T01:52:07.273Z,4.27
2018-01-26T01:54:35.589Z,4.53
2018-01-26T01:57:03.909Z,6.80
2018-01-26T01:59:32.231Z,3.83
2018-01-26T02:02:00.548Z,5.67
2018-01-26T02:04:28.840Z,9.53
2018-01-26T02:06:57.157Z,7.53
2018-01-26T02:09:25.457Z,6.10
2018-01-26T02:11:53.789Z,6.20
2018-01-26T02:14:22.091Z,6.70
2018-01-26T02:16:50.411Z,6.67
2018-01-26T02:19:18.738Z,9.70
2018-01-26T02:21:47.054Z,7.00
2018-01-26T02:24:15.360Z,9.00
2018-01-26T02:26:43.670Z,6.90
2018-01-26T02:29:11.986Z,8.30
2018-01-26T02:31:40.289Z,6.77
2018-01-26T02:34:08.603Z,5.03
2018-01-26T02:36:36.933Z,5.67
2018-01-26T02:39:05.235Z,13.10
2018-01-26T02:41:33.564Z,5.00
2018-01-26T02:44:01.868Z,5.17
2018-01-26T02:46:30.196Z,6.90
2018-01-26T02:48:58.529Z,5.27
2018-01-26T02:51:26.851Z,7.10
2018-01-26T02:53:55.163Z,4.87
2018-01-26T02:56:23.476Z,7.07
2018-01-26T02:58:51.784Z,4.83
2018-01-26T03:01:20.112Z,5.27
2018-01-26T03:03:48.420Z,6.40
2018-01-26T03:06:16.963Z,9.63
2018-01-26T03:08:45.247Z,4.93
2018-01-26T03:11:13.570Z,9.23
2018-01-26T03:13:41.880Z,6.03
2018-01-26T03:16:10.226Z,4.93
2018-01-26T03:18:38.611Z,16.20
2018-01-26T03:21:06.908Z,4.60
2018-01-26T03:23:35.207Z,7.63
2018-01-26T03:26:03.517Z,6.93
2018-01-26T03:28:31.836Z,47.97
2018-01-26T03:31:00.151Z,18.70
2018-01-26T03:33:28.868Z,5.10
2018-01-26T03:35:57.169Z,5.40
2018-01-26T03:38:25.472Z,3.50
2018-01-26T03:40:53.790Z,4.60
2018-01-26T03:43:22.117Z,6.63
2018-01-26T03:45:50.440Z,4.77
2018-01-26T03:48:18.773Z,4.47
2018-01-26T03:50:47.100Z,7.93
2018-01-26T03:53:15.411Z,6.67
2018-01-26T03:55:43.711Z,6.73
2018-01-26T03:58:12.802Z,9.57
2018-01-26T04:00:41.199Z,6.03
2018-01-26T04:03:09.503Z,12.13
2018-01-26T04:05:37.815Z,8.13
2018-01-26T04:08:06.132Z,4.97
2018-01-26T04:10:34.455Z,4.50
2018-01-26T04:13:02.751Z,5.40
2018-01-26T04:15:31.067Z,5.57
2018-01-26T04:17:59.377Z,7.97
2018-01-26T04:20:28.788Z,4.33
2018-01-26T04:22:57.073Z,4.23
2018-01-26T04:25:25.393Z,5.07
2018-01-26T04:27:53.716Z,12.83
2018-01-26T04:30:22.024Z,3.53
2018-01-26T04:32:50.361Z,13.40
2018-01-26T04:35:18.685Z,6.60
2018-01-26T04:37:46.983Z,12.13
2018-01-26T04:40:15.310Z,7.50
2018-01-26T04:42:43.619Z,5.03
2018-01-26T04:45:11.932Z,5.27
2018-01-26T04:47:40.418Z,6.50
2018-01-26T04:50:08.726Z,4.00
2018-01-26T04:52:37.037Z,4.97
2018-01-26T04:55:05.356Z,6.50
2018-01-26T04:57:36.760Z,8.40
2018-01-26T05:00:05.083Z,4.23
2018-01-26T05:02:33.465Z,4.00
2018-01-26T05:05:01.766Z,16.83
2018-01-26T05:07:30.079Z,5.93
2018-01-26T05:09:58.384Z,6.83
2018-01-26T05:12:26.699Z,14.93
2018-01-26T05:14:55.014Z,10.30
2018-01-26T05:17:23.319Z,12.00
2018-01-26T05:19:51.636Z,8.13
2018-01-26T05:22:19.964Z,12.50
2018-01-26T05:24:48.316Z,11.60
2018-01-26T05:27:16.621Z,3.67
2018-01-26T05:29:44.934Z,9.40
2018-01-26T05:32:13.248Z,14.50
2018-01-26T05:34:41.561Z,32.37
2018-01-26T05:37:12.980Z,9.23
2018-01-26T05:39:41.284Z,11.00
2018-01-26T05:42:09.630Z,13.97
2018-01-26T05:44:38.215Z,14.13
2018-01-26T05:47:06.555Z,17.03
2018-01-26T05:49:34.889Z,10.00
2018-01-26T05:52:03.208Z,15.43
2018-01-26T05:54:31.528Z,4.30
2018-01-26T05:56:59.835Z,16.20
2018-01-26T05:59:28.179Z,16.20
2018-01-26T06:01:56.506Z,21.67
2018-01-26T06:04:24.806Z,17.80
2018-01-26T06:06:53.134Z,21.63
2018-01-26T06:09:21.439Z,11.33
2018-01-26T06:11:49.761Z,16.20
2018-01-26T06:14:18.076Z,8.27
2018-01-26T06:16:46.396Z,13.47
2018-01-26T06:19:14.719Z,9.50
2018-01-26T06:21:43.052Z,18.27
2018-01-26T06:24:11.426Z,19.67
2018-01-26T06:26:39.758Z,12.13
2018-01-26T06:29:08.088Z,8.40
2018-01-26T06:31:36.407Z,12.47
2018-01-26T06:34:04.725Z,13.07
2018-01-26T06:36:33.020Z,28.83
2018-01-26T06:39:01.335Z,17.27
2018-01-26T06:41:29.738Z,12.53
2018-01-26T06:43:58.040Z,22.83
2018-01-26T06:46:26.372Z,13.57
2018-01-26T06:48:54.676Z,8.53
2018-01-26T06:51:23.093Z,23.80
2018-01-26T06:53:51.632Z,16.13
2018-01-26T06:56:19.968Z,21.63
2018-01-26T06:58:49.082Z,11.40
2018-01-26T07:01:17.411Z,30.30
2018-01-26T07:03:45.758Z,19.03
2018-01-26T07:06:14.067Z,14.77
2018-01-26T07:08:42.467Z,7.70
2018-01-26T07:11:10.845Z,16.33
2018-01-26T07:13:39.182Z,14.53
2018-01-26T07:16:08.397Z,14.00
2018-01-26T07:18:36.745Z,40.17
2018-01-26T07:21:05.127Z,23.67
2018-01-26T07:23:34.604Z,12.30
2018-01-26T07:26:02.906Z,15.13
2018-01-26T07:28:31.227Z,8.33
2018-01-26T07:30:59.581Z,8.20
2018-01-26T07:33:27.950Z,9.60
2018-01-26T07:35:56.335Z,10.83
2018-01-26T07:38:24.778Z,19.47
2018-01-26T07:40:53.084Z,8.70
2018-01-26T07:43:25.787Z,14.77
2018-01-26T07:45:54.183Z,17.23
2018-01-26T07:48:22.546Z,10.43
2018-01-26T07:50:51.084Z,11.73
2018-01-26T07:53:19.538Z,11.87
2018-01-26T07:55:47.945Z,18.83
2018-01-26T07:58:16.327Z,15.13
2018-01-26T08:00:45.631Z,8.47
2018-01-26T08:03:14.138Z,7.47
2018-01-26T08:05:43.513Z,26.83
2018-01-26T08:08:11.816Z,23.60
2018-01-26T08:10:40.599Z,8.50
2018-01-26T08:13:09.994Z,20.57
2018-01-26T08:15:39.103Z,13.53
2018-01-26T08:18:07.439Z,14.27
2018-01-26T08:20:35.779Z,14.07
2018-01-26T08:23:04.073Z,15.00
2018-01-26T08:25:32.402Z,21.97
2018-01-26T08:28:00.716Z,13.40
2018-01-26T08:30:29.036Z,13.70
2018-01-26T08:32:57.368Z,13.63
2018-01-26T08:35:25.692Z,14.80
2018-01-26T08:37:54.007Z,13.50
2018-01-26T08:40:22.349Z,20.93
2018-01-26T08:42:50.646Z,18.37
2018-01-26T08:45:18.968Z,13.30
2018-01-26T08:47:47.346Z,16.93
2018-01-26T08:50:16.623Z,14.90
2018-01-26T08:52:44.950Z,7.90
2018-01-26T08:55:13.663Z,15.50
2018-01-26T08:57:41.985Z,12.57
2018-01-26T09:00:10.321Z,12.23
2018-01-26T09:02:38.645Z,20.00
2018-01-26T09:05:06.976Z,13.10
2018-01-26T09:07:35.315Z,12.03
2018-01-26T09:10:03.679Z,16.30
2018-01-26T09:12:32.084Z,14.20
2018-01-26T09:15:00.602Z,24.50
2018-01-26T09:17:29.003Z,14.70
2018-01-26T09:19:57.331Z,12.60
2018-01-26T09:22:25.681Z,17.60
2018-01-26T09:24:53.966Z,23.90
2018-01-26T09:27:22.324Z,27.63
2018-01-26T09:29:50.659Z,37.60
2018-01-26T09:32:19.036Z,13.23
2018-01-26T09:34:47.356Z,14.03
2018-01-26T09:37:15.680Z,21.97
2018-01-26T09:39:43.984Z,19.70
2018-01-26T09:42:12.316Z,17.50
2018-01-26T09:44:40.623Z,8.33
2018-01-26T09:47:08.952Z,20.97
2018-01-26T09:49:37.273Z,15.47
2018-01-26T09:52:06.560Z,21.63
2018-01-26T09:54:36.211Z,14.97
2018-01-26T09:57:04.542Z,15.40
2018-01-26T09:59:34.794Z,23.50
2018-01-26T10:02:03.761Z,16.97
2018-01-26T10:04:34.067Z,13.30
2018-01-26T10:07:02.360Z,15.23
2018-01-26T10:09:30.689Z,9.63
2018-01-26T10:11:59.072Z,16.43
2018-01-26T10:14:27.370Z,13.03
2018-01-26T10:16:55.699Z,14.63
2018-01-26T10:19:24.143Z,14.13
2018-01-26T10:21:52.451Z,10.47
2018-01-26T10:24:20.783Z,10.53
2018-01-26T10:26:49.154Z,18.93
2018-01-26T10:29:17.452Z,9.13
2018-01-26T10:31:45.764Z,18.57
2018-01-26T10:34:14.908Z,19.40
2018-01-26T10:36:43.257Z,17.30
2018-01-26T10:39:11.573Z,7.50
2018-01-26T10:41:41.605Z,21.40
2018-01-26T10:44:11.537Z,15.47
2018-01-26T10:46:39.877Z,23.97
2018-01-26T10:49:08.190Z,15.80
2018-01-26T10:51:36.520Z,14.30
2018-01-26T10:54:06.850Z,8.27
2018-01-26T10:56:35.581Z,15.60
2018-01-26T11:01:36.473Z,16.53
2018-01-26T11:04:04.860Z,12.97
2018-01-26T11:06:33.157Z,16.27
2018-01-26T11:09:01.498Z,21.10
2018-01-26T11:11:29.843Z,11.53
2018-01-26T11:19:04.477Z,18.53
2018-01-26T11:21:33.140Z,18.90
2018-01-26T11:24:01.444Z,17.13
2018-01-26T11:26:29.798Z,14.57
2018-01-26T11:28:58.108Z,19.33
2018-01-26T11:31:30.702Z,18.10
2018-01-26T11:36:31.700Z,19.60
2018-01-26T11:39:00.054Z,16.17
2018-01-26T11:41:28.386Z,18.20
2018-01-26T11:43:56.741Z,22.03
2018-01-26T11:46:25.053Z,21.80
2018-01-26T11:48:53.386Z,18.43
2018-01-26T11:51:22.290Z,17.53
2018-01-26T11:53:50.624Z,27.00
2018-01-26T11:56:19.020Z,35.93
2018-01-26T11:58:47.356Z,21.50
2018-01-26T12:03:49.516Z,29.77
2018-01-26T12:06:17.974Z,22.80
2018-01-26T12:13:58.476Z,22.13
2018-01-26T12:16:26.785Z,28.53
2018-01-26T12:18:55.129Z,31.30
2018-01-26T12:21:23.467Z,23.53
2018-01-26T12:23:52.043Z,24.07
2018-01-26T12:26:21.714Z,32.57
2018-01-26T12:28:50.109Z,29.73
2018-01-26T12:31:19.163Z,31.37
2018-01-26T12:33:47.547Z,34.70
2018-01-26T12:36:16.269Z,30.90
2018-01-26T12:38:44.667Z,36.37
2018-01-26T12:41:12.992Z,31.30
2018-01-26T12:43:41.315Z,28.20
2018-01-26T12:46:09.702Z,42.90
2018-01-26T12:48:38.051Z,30.47
2018-01-26T12:51:06.519Z,39.13
2018-01-26T12:53:34.855Z,36.27
2018-01-26T12:56:04.261Z,30.63
2018-01-26T12:58:32.655Z,32.30
2018-01-26T13:01:01.433Z,29.57
2018-01-26T13:03:29.776Z,41.20
2018-01-26T13:05:58.091Z,40.63
2018-01-26T13:08:27.077Z,32.30
2018-01-26T13:10:55.465Z,41.17
2018-01-26T13:13:23.791Z,45.40
2018-01-26T13:15:52.144Z,41.23
2018-01-26T13:18:20.480Z,41.00
2018-01-26T13:20:48.873Z,36.77
2018-01-26T13:23:20.743Z,37.70
2018-01-26T13:25:49.681Z,44.37
2018-01-26T13:28:18.068Z,36.50
2018-01-26T13:30:46.415Z,35.10
2018-01-26T13:35:51.090Z,37.87
2018-01-26T13:38:19.839Z,29.40
2018-01-26T13:40:48.251Z,33.10
2018-01-26T13:43:16.587Z,41.90
2018-01-26T13:45:44.920Z,32.93
2018-01-26T13:48:13.271Z,30.90
2018-01-26T13:50:42.158Z,31.27
2018-01-26T13:53:11.206Z,34.77
2018-01-26T13:55:39.554Z,33.63
2018-01-26T13:58:07.899Z,36.10
2018-01-26T14:00:36.254Z,34.07
2018-01-26T14:03:05.177Z,29.13
2018-01-26T14:05:33.487Z,37.43
2018-01-26T14:08:01.824Z,42.17
2018-01-26T14:10:30.169Z,47.23
2018-01-26T14:12:58.878Z,27.60
2018-01-26T14:15:27.344Z,27.40
2018-01-26T14:17:55.677Z,28.47
2018-01-26T14:20:23.978Z,30.30
2018-01-26T14:22:52.341Z,29.70
2018-01-26T14:25:20.663Z,38.03
2018-01-26T14:27:49.049Z,31.10
2018-01-26T14:30:17.402Z,45.20
2018-01-26T14:32:45.734Z,27.43
2018-01-26T14:35:14.077Z,31.60
2018-01-26T14:37:42.401Z,31.23
2018-01-26T14:40:10.735Z,29.03
2018-01-26T14:42:39.070Z,32.73
2018-01-26T14:45:07.401Z,23.43
2018-01-26T14:47:35.782Z,37.67
2018-01-26T14:50:04.155Z,28.90
2018-01-26T14:52:32.493Z,20.87
2018-01-26T14:55:00.792Z,25.63
2018-01-26T14:57:29.249Z,26.30
2018-01-26T14:59:57.552Z,25.33
2018-01-26T15:02:25.887Z,29.90
2018-01-26T15:04:54.499Z,29.53
2018-01-26T15:07:23.124Z,27.53
2018-01-26T15:09:51.452Z,36.67
2018-01-26T15:12:19.835Z,26.23
2018-01-26T15:14:48.480Z,29.97
2018-01-26T15:17:16.819Z,33.33
2018-01-26T15:19:45.170Z,27.30
2018-01-26T15:22:13.514Z,35.07
2018-01-26T15:24:41.851Z,33.03
2018-01-26T15:27:10.245Z,31.13
2018-01-26T15:29:38.624Z,31.87
2018-01-26T15:32:06.965Z,33.60
2018-01-26T15:34:35.287Z,40.93
2018-01-26T15:37:03.662Z,40.03
2018-01-26T15:39:32.005Z,54.20
2018-01-26T15:42:00.361Z,39.07
2018-01-26T15:44:28.779Z,42.87
2018-01-26T15:46:57.083Z,44.97
2018-01-26T15:49:25.395Z,40.67
2018-01-26T15:51:53.773Z,43.70
2018-01-26T15:54:22.088Z,37.47
2018-01-26T15:56:50.457Z,41.83
2018-01-26T15:59:18.813Z,40.57
2018-01-26T16:01:47.312Z,44.93
2018-01-26T16:04:15.672Z,40.77
2018-01-26T16:06:44.012Z,66.27
2018-01-26T16:09:12.343Z,58.17
2018-01-26T16:11:40.667Z,56.57
2018-01-26T16:14:09.013Z,55.73
2018-01-26T16:16:37.355Z,60.40
2018-01-26T16:19:05.706Z,59.40
2018-01-26T16:21:34.041Z,52.57
2018-01-26T16:24:02.492Z,50.90
2018-01-26T16:26:30.756Z,59.17
2018-01-26T16:28:59.080Z,54.03
2018-01-26T16:31:27.470Z,62.50
2018-01-26T16:33:56.731Z,48.93
2018-01-26T16:36:25.093Z,55.40
2018-01-26T16:38:53.424Z,55.93
2018-01-26T16:41:21.810Z,63.57
2018-01-26T16:43:50.124Z,49.87
2018-01-26T16:46:18.475Z,62.70
2018-01-26T16:48:46.806Z,52.63
2018-01-26T16:51:15.137Z,45.00
2018-01-26T16:53:43.454Z,49.33
2018-01-26T16:56:11.789Z,47.70
2018-01-26T16:58:40.126Z,42.53
2018-01-26T17:01:08.464Z,43.90
2018-01-26T17:03:36.784Z,48.43
2018-01-26T17:06:05.115Z,41.13
2018-01-26T17:08:33.450Z,43.90
2018-01-26T17:11:01.780Z,61.27
2018-01-26T17:13:30.925Z,56.53
2018-01-26T17:15:59.245Z,49.33
2018-01-26T17:18:27.627Z,42.80
2018-01-26T17:20:55.944Z,44.63
2018-01-26T17:23:24.280Z,51.93
2018-01-26T17:25:52.595Z,46.33
2018-01-26T17:28:20.939Z,49.23
2018-01-26T17:30:49.353Z,53.17
2018-01-26T17:33:17.659Z,48.20
2018-01-26T17:35:46.943Z,51.73
2018-01-26T17:38:15.269Z,48.00
2018-01-26T17:40:43.592Z,65.17
2018-01-26T17:43:11.973Z,56.83
2018-01-26T17:45:40.327Z,52.67
2018-01-26T17:48:08.656Z,51.83
2018-01-26T17:50:37.063Z,62.47
2018-01-26T17:53:05.389Z,72.50
2018-01-26T17:55:33.767Z,53.37
2018-01-26T17:58:02.866Z,49.07
2018-01-26T18:00:31.278Z,53.77
2018-01-26T18:02:59.708Z,57.50
2018-01-26T18:05:28.474Z,50.40
2018-01-26T18:07:56.784Z,56.27
2018-01-26T18:10:25.115Z,63.53
2018-01-26T18:12:53.457Z,53.37
2018-01-26T18:15:23.162Z,59.73
2018-01-26T18:17:52.030Z,58.57
2018-01-26T18:20:20.460Z,53.40
2018-01-26T18:22:48.945Z,62.13
2018-01-26T18:25:18.075Z,53.10
2018-01-26T18:27:46.721Z,61.37
2018-01-26T18:30:15.114Z,63.70
2018-01-26T18:32:43.411Z,56.80
2018-01-26T18:35:11.741Z,61.27
2018-01-26T18:37:40.067Z,62.13
2018-01-26T18:40:08.409Z,61.63
2018-01-26T18:42:41.553Z,72.60
2018-01-26T18:45:10.021Z,50.30
2018-01-26T18:47:38.517Z,67.37
2018-01-26T18:50:06.865Z,61.70
2018-01-26T18:52:35.212Z,68.97
2018-01-26T18:55:03.547Z,68.23
2018-01-26T18:57:31.932Z,65.03
2018-01-26T19:00:00.267Z,66.10
2018-01-26T19:02:28.599Z,55.63
2018-01-26T19:04:56.952Z,62.43
2018-01-26T19:07:25.303Z,70.30
2018-01-26T19:09:53.782Z,76.60
2018-01-26T19:12:22.161Z,61.00
2018-01-26T19:14:50.830Z,50.97
2018-01-26T19:17:19.555Z,79.37
2018-01-26T19:19:47.979Z,60.00
2018-01-26T19:22:16.428Z,60.10
2018-01-26T19:24:45.143Z,69.83
2018-01-26T19:27:13.591Z,62.07
2018-01-26T19:29:41.954Z,54.20
2018-01-26T19:32:10.289Z,66.00
2018-01-26T19:34:38.708Z,63.30
2018-01-26T19:37:07.156Z,69.70
2018-01-26T19:39:35.501Z,59.07
2018-01-26T19:42:03.863Z,74.30
2018-01-26T19:44:32.212Z,67.83
2018-01-26T19:47:00.532Z,69.03
2018-01-26T19:49:28.867Z,51.13
2018-01-26T19:51:57.219Z,58.80
2018-01-26T19:54:25.547Z,63.63
2018-01-26T19:56:54.873Z,60.50
2018-01-26T19:59:23.210Z,59.73
2018-01-26T20:01:51.552Z,53.53
2018-01-26T20:07:33.521Z,51.40
2018-01-26T20:10:01.836Z,56.23
2018-01-26T20:12:35.775Z,64.50
2018-01-26T20:15:05.569Z,54.00
2018-01-26T20:17:50.550Z,56.40
2018-01-26T20:20:18.969Z,67.57
2018-01-26T20:22:47.295Z,55.73
2018-01-26T20:25:15.622Z,68.70
2018-01-26T20:27:43.950Z,52.10
2018-01-26T20:30:12.272Z,56.13
2018-01-26T20:32:41.134Z,53.00
2018-01-26T20:35:09.499Z,58.60
2018-01-26T20:37:37.817Z,62.10
2018-01-26T20:40:06.264Z,58.43
2018-01-26T20:42:34.595Z,55.33
2018-01-26T20:45:02.925Z,49.00
2018-01-26T20:47:31.240Z,57.50
2018-01-26T20:49:59.577Z,57.03
2018-01-26T20:52:27.901Z,48.37
2018-01-26T20:54:56.230Z,60.20
2018-01-26T20:57:24.577Z,55.50
2018-01-26T20:59:52.913Z,48.23
2018-01-26T21:02:21.246Z,54.80
2018-01-26T21:04:49.567Z,62.50
2018-01-26T21:07:17.888Z,61.63
2018-01-26T21:09:46.224Z,51.40
2018-01-26T21:12:14.542Z,60.10
2018-01-26T21:14:43.493Z,63.30
2018-01-26T21:17:12.405Z,51.00
2018-01-26T21:19:41.360Z,47.27
2018-01-26T21:22:09.688Z,52.57
2018-01-26T21:24:38.027Z,48.90
2018-01-26T21:27:06.407Z,49.07
2018-01-26T21:29:34.747Z,52.17
2018-01-26T21:32:03.084Z,53.07
2018-01-26T21:34:31.397Z,49.90
2018-01-26T21:36:59.802Z,54.33
2018-01-26T21:39:29.015Z,49.23
2018-01-26T21:41:57.337Z,62.80
2018-01-26T21:44:26.432Z,52.93
2018-01-26T21:46:54.781Z,60.97
2018-01-26T21:49:23.112Z,52.53
2018-01-26T21:51:51.502Z,54.53
2018-01-26T21:54:19.820Z,65.33
2018-01-26T21:56:48.256Z,55.10
2018-01-26T21:59:16.621Z,48.03
2018-01-26T22:01:44.929Z,57.17
2018-01-26T22:04:13.281Z,56.60
2018-01-26T22:06:47.055Z,55.13
2018-01-26T22:09:15.356Z,56.83
2018-01-26T22:11:43.669Z,49.33
2018-01-26T22:14:11.985Z,46.87
2018-01-26T22:16:40.319Z,54.13
2018-01-26T22:19:08.638Z,43.40
2018-01-26T22:21:37.057Z,48.50
2018-01-26T22:24:05.367Z,50.93
2018-01-26T22:26:33.702Z,44.77
2018-01-26T22:29:02.050Z,45.10
2018-01-26T22:31:30.407Z,50.70
2018-01-26T22:33:58.719Z,44.10
2018-01-26T22:36:27.107Z,42.77
2018-01-26T22:38:55.418Z,44.30
2018-01-26T22:41:23.774Z,42.83
2018-01-26T22:43:52.095Z,50.17
2018-01-26T22:46:20.423Z,50.30
2018-01-26T22:48:48.771Z,51.03
2018-01-26T22:51:17.088Z,50.37
2018-01-26T22:53:45.427Z,46.73
2018-01-26T22:56:13.798Z,55.90
2018-01-26T22:58:42.154Z,50.37
2018-01-26T23:01:10.487Z,40.60
2018-01-26T23:03:38.809Z,42.07
2018-01-26T23:06:07.136Z,45.73
2018-01-26T23:08:35.471Z,48.83
2018-01-26T23:11:03.811Z,41.57
2018-01-26T23:13:32.161Z,46.47
2018-01-26T23:16:00.478Z,53.33
2018-01-26T23:18:28.794Z,43.73
2018-01-26T23:20:57.109Z,42.40
2018-01-26T23:23:25.451Z,43.23
2018-01-26T23:25:53.767Z,41.40
2018-01-26T23:28:22.103Z,38.70
2018-01-26T23:30:50.695Z,38.80
2018-01-26T23:33:19.025Z,46.00
2018-01-26T23:35:48.027Z,46.07
2018-01-26T23:38:16.362Z,43.23
2018-01-26T23:40:44.671Z,49.73
2018-01-26T23:43:13.008Z,43.63
2018-01-26T23:45:41.336Z,43.73
2018-01-26T23:48:09.650Z,43.63
2018-01-26T23:50:38.024Z,41.80
2018-01-26T23:53:06.347Z,42.60
2018-01-26T23:55:34.730Z,41.23
2018-01-26T23:58:03.052Z,43.47
